Khania/Souda, Greece
Current Conditions -  °F | °C
As of 1:20 PM on Saturday 22 Nov 2014 (Local Time) from LGSA Reporting Station
Scattered Clouds Scattered Clouds  
Wind Chill: 63°   Ceiling: Unl
Heat Index: 63°   Visibility: 6mi
Dew Point: 45°   Wind: 9mph
Humidity: 52%   Direction: 30°NNE
Pressure: 30.15"   Gusts: NA
Location:  35.53°N, 24.15°E
Report Text: LGSA 221020Z 03008KT 9999 FEW025 SCT030 17/07 Q1021
Loading
Personal Weather Stations






























Interactive Weather Map New forecast layout! Learn more

10-Day Weather Forecast

Advertisements
Track Severe Weather on mobile